createdAt,value
2022-09-24T00:00:23.782Z,6.90
2022-09-24T00:03:13.827Z,6.53
2022-09-24T00:08:14.779Z,7.50
2022-09-24T00:10:46.290Z,7.13
2022-09-24T00:13:19.814Z,7.00
2022-09-24T00:15:50.770Z,7.13
2022-09-24T00:18:22.209Z,7.13
2022-09-24T00:20:51.599Z,6.47
2022-09-24T00:23:22.563Z,6.07
2022-09-24T00:26:09.807Z,7.07
2022-09-24T00:28:39.172Z,6.82
2022-09-24T00:31:09.654Z,6.97
2022-09-24T00:33:38.939Z,6.68
2022-09-24T00:36:11.525Z,8.00
2022-09-24T00:38:42.713Z,7.32
2022-09-24T00:43:41.541Z,6.57
2022-09-24T00:46:17.039Z,6.50
2022-09-24T00:48:48.005Z,7.65
2022-09-24T00:51:21.292Z,6.45
2022-09-24T00:53:55.653Z,6.30
2022-09-24T00:56:26.431Z,7.40
2022-09-24T00:58:58.732Z,6.90
2022-09-24T01:01:28.456Z,6.03
2022-09-24T01:04:00.661Z,6.63
2022-09-24T01:06:30.883Z,6.43
2022-09-24T01:09:02.425Z,7.05
2022-09-24T01:11:42.979Z,6.13
2022-09-24T01:14:33.278Z,6.67
2022-09-24T01:17:13.010Z,6.50
2022-09-24T01:20:09.048Z,5.65
2022-09-24T01:22:51.684Z,6.85
2022-09-24T01:25:32.575Z,5.60
2022-09-24T01:28:23.421Z,6.32
2022-09-24T01:30:59.871Z,5.70
2022-09-24T01:33:32.250Z,6.80
2022-09-24T01:36:08.750Z,6.38
2022-09-24T01:38:44.548Z,5.95
2022-09-24T01:41:16.627Z,5.20
2022-09-24T01:43:48.690Z,5.90
2022-09-24T01:46:21.051Z,6.05
2022-09-24T01:48:51.109Z,5.82
2022-09-24T01:51:26.936Z,6.15
2022-09-24T01:54:03.902Z,6.60
2022-09-24T01:56:38.770Z,4.93
2022-09-24T01:59:14.590Z,6.10
2022-09-24T02:01:53.033Z,5.45
2022-09-24T02:04:25.860Z,6.30
2022-09-24T02:07:00.841Z,6.03
2022-09-24T02:09:35.907Z,6.13
2022-09-24T02:12:10.131Z,5.40
2022-09-24T02:14:44.643Z,6.05
2022-09-24T02:17:16.646Z,5.55
2022-09-24T02:19:48.166Z,6.75
2022-09-24T02:22:19.719Z,5.63
2022-09-24T02:24:52.031Z,6.15
2022-09-24T02:27:22.385Z,4.55
2022-09-24T02:32:25.007Z,6.28
2022-09-24T02:34:58.237Z,5.38
2022-09-24T02:37:27.793Z,6.45
2022-09-24T02:39:58.050Z,5.93
2022-09-24T02:42:27.581Z,6.13
2022-09-24T02:44:57.734Z,6.50
2022-09-24T02:47:29.514Z,6.70
2022-09-24T02:49:59.391Z,7.38
2022-09-24T02:52:29.586Z,7.43
2022-09-24T02:54:58.945Z,8.07
2022-09-24T02:57:28.233Z,7.75
2022-09-24T02:59:57.892Z,7.32
2022-09-24T03:02:28.906Z,8.82
2022-09-24T03:04:58.916Z,8.95
2022-09-24T03:07:28.172Z,8.85
2022-09-24T03:09:57.994Z,7.75
2022-09-24T03:12:28.014Z,10.30
2022-09-24T03:14:57.483Z,8.38
2022-09-24T03:17:29.319Z,8.98
2022-09-24T03:19:59.090Z,7.97
2022-09-24T03:22:28.355Z,9.48
2022-09-24T03:24:57.717Z,8.77
2022-09-24T03:27:27.889Z,8.97
2022-09-24T03:30:14.366Z,10.20
2022-09-24T03:32:45.380Z,9.63
2022-09-24T03:35:15.957Z,10.35
2022-09-24T03:37:49.234Z,9.43
2022-09-24T03:40:18.994Z,9.45
2022-09-24T03:42:49.146Z,8.93
2022-09-24T03:45:18.640Z,9.90
2022-09-24T03:47:49.468Z,9.43
2022-09-24T03:50:19.581Z,9.52
2022-09-24T03:52:48.846Z,8.40
2022-09-24T03:55:18.365Z,9.05
2022-09-24T03:57:48.115Z,9.18
2022-09-24T04:00:17.862Z,8.63
2022-09-24T04:02:49.016Z,7.80
2022-09-24T04:05:19.061Z,9.20
2022-09-24T04:07:48.362Z,7.85
2022-09-24T04:10:17.856Z,8.45
2022-09-24T04:12:47.700Z,9.07
2022-09-24T04:15:18.343Z,7.82
2022-09-24T04:17:53.514Z,7.25
2022-09-24T04:20:27.774Z,7.25
2022-09-24T04:22:59.020Z,7.70
2022-09-24T04:25:30.898Z,7.43
2022-09-24T04:28:01.891Z,7.43
2022-09-24T04:30:34.061Z,6.18
2022-09-24T04:33:04.897Z,7.30
2022-09-24T04:35:36.833Z,7.45
2022-09-24T04:38:07.113Z,7.65
2022-09-24T04:40:36.778Z,7.72
2022-09-24T04:43:06.777Z,6.97
2022-09-24T04:45:36.523Z,6.10
2022-09-24T04:48:08.440Z,6.10
2022-09-24T04:50:44.807Z,6.45
2022-09-24T04:53:15.933Z,6.72
2022-09-24T04:55:45.193Z,5.75
2022-09-24T04:58:14.689Z,6.25
2022-09-24T05:00:44.767Z,6.13
2022-09-24T05:03:15.830Z,5.82
2022-09-24T05:05:45.791Z,5.75
2022-09-24T05:08:15.632Z,7.72
2022-09-24T05:10:45.152Z,5.65
2022-09-24T05:13:14.810Z,5.53
2022-09-24T05:15:44.151Z,6.13
2022-09-24T05:18:15.000Z,5.80
2022-09-24T05:20:45.093Z,6.05
2022-09-24T05:23:14.414Z,5.30
2022-09-24T05:25:57.312Z,5.80
2022-09-24T05:28:27.466Z,5.82
2022-09-24T05:30:59.187Z,6.10
2022-09-24T05:33:30.342Z,6.28
2022-09-24T05:38:30.217Z,5.60
2022-09-24T05:43:29.173Z,5.93
2022-09-24T05:45:59.054Z,5.32
2022-09-24T05:48:30.221Z,5.60
2022-09-24T05:53:28.861Z,5.28
2022-09-24T05:55:59.094Z,5.88
2022-09-24T05:58:28.749Z,5.82
2022-09-24T06:01:00.123Z,5.63
2022-09-24T06:03:32.088Z,5.13
2022-09-24T06:06:02.582Z,5.45
2022-09-24T06:11:03.330Z,5.15
2022-09-24T06:13:35.476Z,5.03
2022-09-24T06:16:06.413Z,4.90
2022-09-24T06:18:38.549Z,4.68
2022-09-24T06:21:10.021Z,5.63
2022-09-24T06:23:40.674Z,5.65
2022-09-24T06:26:12.828Z,5.18
2022-09-24T06:28:43.487Z,4.78
2022-09-24T06:31:13.109Z,5.10
2022-09-24T06:33:43.989Z,5.13
2022-09-24T06:36:13.693Z,5.18
2022-09-24T06:38:42.961Z,5.70
2022-09-24T06:41:12.195Z,6.35
2022-09-24T06:43:41.902Z,5.57
2022-09-24T06:46:11.895Z,6.38
2022-09-24T06:48:42.927Z,5.53
2022-09-24T06:51:12.689Z,5.78
2022-09-24T06:53:42.222Z,6.07
2022-09-24T06:56:11.547Z,5.38
2022-09-24T06:58:41.426Z,5.80
2022-09-24T07:01:10.871Z,6.57
2022-09-24T07:03:40.578Z,5.90
2022-09-24T07:06:11.954Z,5.20
2022-09-24T07:08:41.530Z,6.60
2022-09-24T07:11:11.206Z,6.07
2022-09-24T07:13:40.637Z,5.53
2022-09-24T07:16:10.047Z,5.82
2022-09-24T07:18:40.141Z,5.80
2022-09-24T07:21:11.053Z,6.10
2022-09-24T07:23:40.716Z,6.63
2022-09-24T07:26:09.960Z,6.38
2022-09-24T07:28:39.372Z,7.03
2022-09-24T07:31:09.623Z,6.10
2022-09-24T07:33:39.146Z,7.10
2022-09-24T07:36:08.916Z,5.53
2022-09-24T07:38:40.158Z,5.75
2022-09-24T07:41:10.228Z,5.20
2022-09-24T07:43:39.952Z,4.20
2022-09-24T07:46:09.637Z,5.03
2022-09-24T07:48:39.074Z,4.38
2022-09-24T07:51:11.891Z,3.00
2022-09-24T07:53:42.689Z,3.10
2022-09-24T07:56:12.742Z,2.03
2022-09-24T07:58:42.622Z,1.88
2022-09-24T08:01:13.175Z,2.47
2022-09-24T08:03:42.843Z,2.38
2022-09-24T08:06:12.405Z,2.10
2022-09-24T08:08:43.750Z,2.13
2022-09-24T08:11:15.067Z,2.28
2022-09-24T08:13:45.463Z,1.98
2022-09-24T08:16:16.716Z,2.10
2022-09-24T08:18:46.219Z,2.22
2022-09-24T08:21:15.865Z,2.00
2022-09-24T08:23:47.112Z,2.20
2022-09-24T08:26:16.833Z,2.15
2022-09-24T08:28:46.213Z,2.53
2022-09-24T08:31:16.574Z,2.90
2022-09-24T08:33:50.983Z,2.05
2022-09-24T08:36:20.405Z,2.45
2022-09-24T08:38:55.197Z,2.53
2022-09-24T08:41:50.678Z,2.28
2022-09-24T08:44:39.750Z,2.30
2022-09-24T08:47:25.877Z,2.45
2022-09-24T08:50:02.788Z,3.47
2022-09-24T08:52:41.931Z,2.75
2022-09-24T08:55:21.514Z,2.55
2022-09-24T08:57:59.156Z,2.63
2022-09-24T09:00:33.362Z,2.65
2022-09-24T09:03:13.312Z,2.45
2022-09-24T09:05:56.066Z,3.20
2022-09-24T09:11:33.782Z,4.75
2022-09-24T09:14:08.227Z,4.10
2022-09-24T09:16:48.479Z,4.10
2022-09-24T09:19:20.353Z,2.77
2022-09-24T09:21:54.876Z,3.08
2022-09-24T09:24:34.321Z,3.38
2022-09-24T09:27:15.244Z,3.78
2022-09-24T09:29:46.624Z,4.03
2022-09-24T09:32:32.086Z,5.18
2022-09-24T09:35:13.308Z,3.38
2022-09-24T09:37:50.577Z,3.05
2022-09-24T09:40:32.411Z,2.85
2022-09-24T09:43:06.155Z,2.53
2022-09-24T09:45:43.639Z,2.83
2022-09-24T09:48:14.509Z,2.17
2022-09-24T09:50:46.684Z,2.35
2022-09-24T09:53:23.909Z,2.38
2022-09-24T09:55:56.465Z,1.67
2022-09-24T09:58:29.414Z,2.58
2022-09-24T10:01:08.287Z,3.00
2022-09-24T10:03:50.794Z,2.45
2022-09-24T10:06:27.929Z,2.03
2022-09-24T10:09:09.694Z,2.20
2022-09-24T10:11:39.227Z,1.92
2022-09-24T10:14:13.579Z,3.23
2022-09-24T10:16:45.495Z,2.95
2022-09-24T10:19:21.026Z,2.63
2022-09-24T10:21:51.078Z,2.60
2022-09-24T10:24:24.201Z,2.40
2022-09-24T10:26:54.402Z,2.40
2022-09-24T10:29:45.593Z,2.78
2022-09-24T10:32:18.204Z,3.25
2022-09-24T10:34:57.957Z,2.20
2022-09-24T10:37:27.814Z,1.70
2022-09-24T10:40:02.119Z,2.50
2022-09-24T10:42:32.510Z,1.63
2022-09-24T10:47:44.100Z,1.70
2022-09-24T10:52:54.777Z,1.48
2022-09-24T10:55:37.516Z,1.00
2022-09-24T10:58:21.283Z,1.40
2022-09-24T11:01:03.661Z,1.80
2022-09-24T11:03:55.788Z,1.30
2022-09-24T11:06:41.378Z,1.67
2022-09-24T11:09:24.450Z,2.40
2022-09-24T11:12:05.946Z,2.00
2022-09-24T11:15:00.222Z,1.65
2022-09-24T11:17:42.338Z,1.83
2022-09-24T11:20:24.522Z,1.40
2022-09-24T11:23:18.710Z,1.40
2022-09-24T11:25:55.644Z,1.00
2022-09-24T11:28:53.057Z,1.50
2022-09-24T11:31:32.292Z,1.00
2022-09-24T11:34:18.241Z,1.40
2022-09-24T11:37:10.485Z,1.92
2022-09-24T11:39:58.550Z,1.30
2022-09-24T11:42:31.874Z,1.75
2022-09-24T11:45:27.494Z,1.70
2022-09-24T11:48:28.507Z,1.50
2022-09-24T11:51:13.677Z,1.50
2022-09-24T11:53:48.245Z,1.90
2022-09-24T11:56:23.853Z,1.85
2022-09-24T11:58:59.370Z,1.35
2022-09-24T12:01:31.705Z,2.50
2022-09-24T12:04:06.218Z,2.85
2022-09-24T12:06:43.907Z,1.98
2022-09-24T12:09:19.546Z,2.08
2022-09-24T12:11:53.609Z,2.50
2022-09-24T12:14:27.118Z,2.15
2022-09-24T12:17:03.621Z,2.65
2022-09-24T12:19:38.066Z,2.45
2022-09-24T12:22:12.219Z,2.53
2022-09-24T12:24:47.110Z,2.53
2022-09-24T12:27:20.828Z,2.20
2022-09-24T12:30:19.943Z,2.85
2022-09-24T12:32:56.297Z,2.97
2022-09-24T12:35:38.759Z,2.45
2022-09-24T12:38:15.857Z,2.95
2022-09-24T12:41:10.279Z,2.80
2022-09-24T12:43:47.175Z,2.50
2022-09-24T12:46:20.481Z,2.63
2022-09-24T12:48:51.425Z,2.45
2022-09-24T12:54:06.587Z,2.25
2022-09-24T12:56:36.065Z,2.05
2022-09-24T12:59:06.016Z,2.90
2022-09-24T13:01:36.167Z,2.60
2022-09-24T13:04:25.641Z,2.50
2022-09-24T13:06:56.249Z,2.58
2022-09-24T13:09:35.493Z,2.75
2022-09-24T13:12:22.514Z,2.97
2022-09-24T13:14:58.133Z,3.45
2022-09-24T13:17:28.235Z,2.88
2022-09-24T13:20:02.537Z,3.00
2022-09-24T13:22:34.890Z,2.97
2022-09-24T13:25:24.226Z,2.72
2022-09-24T13:28:04.822Z,2.28
2022-09-24T13:30:38.639Z,2.85
2022-09-24T13:33:21.605Z,3.03
2022-09-24T13:36:10.581Z,2.40
2022-09-24T13:38:49.943Z,2.03
2022-09-24T13:41:30.801Z,2.35
2022-09-24T13:44:06.447Z,2.50
2022-09-24T13:46:38.098Z,2.20
2022-09-24T13:49:14.067Z,2.40
2022-09-24T13:51:45.762Z,2.20
2022-09-24T13:54:25.226Z,2.08
2022-09-24T13:57:04.251Z,2.13
2022-09-24T13:59:34.334Z,2.87
2022-09-24T14:02:04.235Z,2.53
2022-09-24T14:04:33.595Z,2.23
2022-09-24T14:07:04.650Z,2.40
2022-09-24T14:09:36.030Z,2.63
2022-09-24T14:12:17.237Z,2.10
2022-09-24T14:14:48.250Z,1.75
2022-09-24T14:17:18.403Z,2.47
2022-09-24T14:19:49.114Z,1.65
2022-09-24T14:22:23.365Z,1.83
2022-09-24T14:24:58.217Z,2.08
2022-09-24T14:27:31.669Z,2.22
2022-09-24T14:30:04.498Z,2.53
2022-09-24T14:32:36.482Z,2.67
2022-09-24T14:35:09.360Z,2.20
2022-09-24T14:37:41.818Z,2.45
2022-09-24T14:40:17.179Z,2.33
2022-09-24T14:42:50.662Z,2.90
2022-09-24T14:45:22.349Z,2.72
2022-09-24T14:48:02.934Z,2.80
2022-09-24T14:50:39.143Z,2.72
2022-09-24T14:53:22.516Z,2.25
2022-09-24T14:55:52.246Z,2.55
2022-09-24T14:58:33.528Z,2.85
2022-09-24T15:01:05.776Z,2.80
2022-09-24T15:03:41.404Z,2.58
2022-09-24T15:06:21.050Z,2.70
2022-09-24T15:09:05.511Z,3.15
2022-09-24T15:11:37.289Z,2.65
2022-09-24T15:14:25.436Z,2.97
2022-09-24T15:16:55.642Z,2.83
2022-09-24T15:19:28.924Z,3.00
2022-09-24T15:22:00.417Z,3.35
2022-09-24T15:24:30.850Z,3.97
2022-09-24T15:27:05.712Z,3.60
2022-09-24T15:29:37.908Z,4.80
2022-09-24T15:32:17.065Z,3.45
2022-09-24T15:34:47.827Z,3.92
2022-09-24T15:37:21.006Z,3.60
2022-09-24T15:39:51.546Z,3.78
2022-09-24T15:42:22.189Z,3.67
2022-09-24T15:44:54.887Z,3.40
2022-09-24T15:47:24.855Z,3.72
2022-09-24T15:49:54.743Z,3.90
2022-09-24T15:52:27.617Z,3.25
2022-09-24T15:54:59.150Z,3.22
2022-09-24T15:57:28.936Z,3.17
2022-09-24T16:00:00.533Z,3.78
2022-09-24T16:02:33.603Z,3.13
2022-09-24T16:05:04.289Z,4.13
2022-09-24T16:07:35.390Z,3.70
2022-09-24T16:10:05.875Z,3.17
2022-09-24T16:12:35.560Z,4.07
2022-09-24T16:15:07.226Z,3.80
2022-09-24T16:17:38.784Z,4.03
2022-09-24T16:20:10.137Z,5.03
2022-09-24T16:22:40.211Z,4.53
2022-09-24T16:25:10.062Z,3.97
2022-09-24T16:27:39.469Z,4.73
2022-09-24T16:30:11.881Z,5.05
2022-09-24T16:32:41.388Z,3.90
2022-09-24T16:35:13.495Z,5.15
2022-09-24T16:37:43.214Z,5.05
2022-09-24T16:40:13.763Z,4.78
2022-09-24T16:42:43.322Z,5.40
2022-09-24T16:45:14.461Z,5.90
2022-09-24T16:47:44.349Z,6.57
2022-09-24T16:50:13.662Z,5.88
2022-09-24T16:52:45.269Z,5.90
2022-09-24T16:55:14.988Z,5.13
2022-09-24T16:57:44.502Z,6.18
2022-09-24T17:00:16.703Z,6.85
2022-09-24T17:02:46.750Z,5.55
2022-09-24T17:05:16.062Z,5.57
2022-09-24T17:07:45.345Z,5.45
2022-09-24T17:10:13.952Z,5.03
2022-09-24T17:12:44.800Z,5.78
2022-09-24T17:15:18.127Z,5.50
2022-09-24T17:17:50.668Z,5.32
2022-09-24T17:20:20.850Z,5.45
2022-09-24T17:22:50.994Z,7.15
2022-09-24T17:25:20.256Z,10.25
2022-09-24T17:27:50.074Z,6.78
2022-09-24T17:30:21.729Z,6.20
2022-09-24T17:32:51.220Z,6.57
2022-09-24T17:35:22.463Z,5.85
2022-09-24T17:37:52.042Z,7.22
2022-09-24T17:40:24.313Z,7.47
2022-09-24T17:42:54.082Z,6.57
2022-09-24T17:45:26.431Z,8.27
2022-09-24T17:47:58.574Z,7.68
2022-09-24T17:50:30.162Z,7.85
2022-09-24T17:53:01.961Z,8.55
2022-09-24T17:55:31.624Z,8.27
2022-09-24T17:58:00.894Z,8.43
2022-09-24T18:00:31.702Z,8.82
2022-09-24T18:03:01.725Z,9.13
2022-09-24T18:05:31.065Z,12.13
2022-09-24T18:08:01.235Z,11.53
2022-09-24T18:10:30.871Z,12.30
2022-09-24T18:13:00.597Z,13.75
2022-09-24T18:18:29.150Z,11.82
2022-09-24T18:21:01.575Z,11.80
2022-09-24T18:23:31.639Z,13.38
2022-09-24T18:26:11.053Z,12.07
2022-09-24T18:28:41.750Z,11.35
2022-09-24T18:33:44.207Z,11.65
2022-09-24T18:36:15.658Z,12.90
2022-09-24T18:41:16.770Z,12.55
2022-09-24T18:43:46.380Z,12.63
2022-09-24T18:46:19.310Z,12.80
2022-09-24T18:48:50.332Z,12.02
2022-09-24T18:51:22.489Z,12.07
2022-09-24T18:53:55.617Z,11.60
2022-09-24T18:56:26.117Z,15.00
2022-09-24T18:58:59.109Z,13.55
2022-09-24T19:01:45.751Z,11.98
2022-09-24T19:04:16.598Z,12.57
2022-09-24T19:06:48.535Z,12.30
2022-09-24T19:09:20.530Z,12.43
2022-09-24T19:11:50.611Z,12.70
2022-09-24T19:14:21.163Z,12.35
2022-09-24T19:16:56.499Z,12.13
2022-09-24T19:19:26.930Z,13.20
2022-09-24T19:21:56.642Z,12.13
2022-09-24T19:24:25.910Z,13.50
2022-09-24T19:26:55.593Z,13.48
2022-09-24T19:29:25.741Z,15.00
2022-09-24T19:31:56.662Z,15.13
2022-09-24T19:34:26.518Z,15.32
2022-09-24T19:36:55.819Z,15.20
2022-09-24T19:39:25.706Z,15.40
2022-09-24T19:41:55.638Z,16.25
2022-09-24T19:44:24.881Z,14.95
2022-09-24T19:46:55.904Z,16.15
2022-09-24T19:49:25.925Z,16.13
2022-09-24T19:51:55.270Z,16.08
2022-09-24T19:54:24.706Z,16.80
2022-09-24T19:56:55.118Z,14.73
2022-09-24T19:59:25.264Z,15.63
2022-09-24T20:01:56.629Z,16.40
2022-09-24T20:04:26.521Z,17.77
2022-09-24T20:06:56.048Z,18.17
2022-09-24T20:09:25.722Z,15.85
2022-09-24T20:11:55.238Z,15.82
2022-09-24T20:14:25.564Z,18.50
2022-09-24T20:16:56.349Z,16.67
2022-09-24T20:19:26.179Z,15.93
2022-09-24T20:21:57.707Z,16.17
2022-09-24T20:24:28.024Z,16.60
2022-09-24T20:27:14.788Z,17.48
2022-09-24T20:29:45.734Z,17.88
2022-09-24T20:32:16.782Z,18.55
2022-09-24T20:34:46.589Z,18.80
2022-09-24T20:37:16.042Z,18.27
2022-09-24T20:39:45.452Z,17.50
2022-09-24T20:42:16.519Z,17.08
2022-09-24T20:44:46.434Z,17.15
2022-09-24T20:47:18.096Z,18.23
2022-09-24T20:49:59.839Z,18.00
2022-09-24T20:52:34.673Z,16.33
2022-09-24T20:55:04.330Z,18.90
2022-09-24T20:57:34.207Z,18.15
2022-09-24T21:00:04.650Z,17.00
2022-09-24T21:02:41.147Z,17.17
2022-09-24T21:05:11.580Z,18.95
2022-09-24T21:07:42.973Z,19.08
2022-09-24T21:10:14.308Z,17.00
2022-09-24T21:12:47.513Z,18.40
2022-09-24T21:15:20.346Z,17.77
2022-09-24T21:18:18.261Z,18.00
2022-09-24T21:20:42.818Z,17.08
2022-09-24T21:23:13.483Z,17.75
2022-09-24T21:26:00.214Z,18.27
2022-09-24T21:28:37.055Z,18.20
2022-09-24T21:31:08.924Z,19.88
2022-09-24T21:33:40.236Z,19.27
2022-09-24T21:36:12.338Z,19.98
2022-09-24T21:38:42.118Z,17.63
2022-09-24T21:41:11.469Z,18.67
2022-09-24T21:43:42.110Z,17.85
2022-09-24T21:48:42.415Z,19.45
2022-09-24T21:53:43.688Z,17.88
2022-09-24T21:56:13.156Z,18.40
2022-09-24T21:58:42.555Z,20.17
2022-09-24T22:01:17.867Z,17.95
2022-09-24T22:03:49.120Z,19.17
2022-09-24T22:06:18.965Z,19.63
2022-09-24T22:08:48.232Z,17.50
2022-09-24T22:11:18.166Z,18.80
2022-09-24T22:13:48.302Z,17.63
2022-09-24T22:16:18.031Z,17.15
2022-09-24T22:18:49.330Z,17.20
2022-09-24T22:21:19.322Z,17.83
2022-09-24T22:23:49.000Z,17.13
2022-09-24T22:26:18.894Z,17.20
2022-09-24T22:28:49.292Z,16.88
2022-09-24T22:31:19.706Z,15.73
2022-09-24T22:34:07.991Z,16.63
2022-09-24T22:36:38.277Z,16.17
2022-09-24T22:39:08.443Z,16.38
2022-09-24T22:41:40.281Z,15.75
2022-09-24T22:44:10.738Z,16.15
2022-09-24T22:46:41.578Z,15.55
2022-09-24T22:49:13.106Z,15.50
2022-09-24T22:51:42.469Z,15.75
2022-09-24T22:54:12.346Z,16.40
2022-09-24T22:56:41.936Z,15.55
2022-09-24T22:59:11.267Z,15.98
2022-09-24T23:01:44.043Z,15.43
2022-09-24T23:04:15.456Z,15.00
2022-09-24T23:06:45.364Z,14.52
2022-09-24T23:09:14.820Z,16.73
2022-09-24T23:11:44.069Z,17.35
2022-09-24T23:14:15.761Z,15.63
2022-09-24T23:16:45.837Z,15.77
2022-09-24T23:19:19.155Z,15.02
2022-09-24T23:21:49.110Z,15.68
2022-09-24T23:24:22.160Z,15.82
2022-09-24T23:26:51.882Z,14.60
2022-09-24T23:29:21.898Z,14.23
2022-09-24T23:31:51.266Z,13.00
2022-09-24T23:34:22.105Z,13.80
2022-09-24T23:36:52.249Z,15.82
2022-09-24T23:39:21.525Z,16.40
2022-09-24T23:41:51.080Z,15.82
2022-09-24T23:44:21.297Z,16.20
2022-09-24T23:46:50.770Z,17.67
2022-09-24T23:49:21.546Z,16.33
2022-09-24T23:54:20.258Z,15.88
2022-09-24T23:56:49.814Z,16.40
2022-09-24T23:59:19.469Z,15.98
